sensor_id;sensor_type;location;lat;lon;timestamp;pressure;altitude;pressure_sealevel;temperature;humidity
56992;BME280;42885;49.754;18.636;2023-03-25T00:01:41;97257.44;;;17.10;94.69
56992;BME280;42885;49.754;18.636;2023-03-25T00:04:31;97265.96;;;16.99;96.10
56992;BME280;42885;49.754;18.636;2023-03-25T00:07:21;97260.97;;;16.96;96.53
56992;BME280;42885;49.754;18.636;2023-03-25T00:10:12;97258.43;;;17.13;95.59
56992;BME280;42885;49.754;18.636;2023-03-25T00:13:01;97254.46;;;17.09;96.72
56992;BME280;42885;49.754;18.636;2023-03-25T00:15:52;97241.94;;;17.19;95.71
56992;BME280;42885;49.754;18.636;2023-03-25T00:18:43;97244.85;;;17.03;97.68
56992;BME280;42885;49.754;18.636;2023-03-25T00:21:34;97247.19;;;17.11;97.61
56992;BME280;42885;49.754;18.636;2023-03-25T00:24:23;97243.91;;;16.82;100.00
56992;BME280;42885;49.754;18.636;2023-03-25T00:27:14;97255.98;;;16.89;100.00
56992;BME280;42885;49.754;18.636;2023-03-25T00:30:06;97272.21;;;16.63;100.00
56992;BME280;42885;49.754;18.636;2023-03-25T00:32:55;97262.91;;;16.82;100.00
56992;BME280;42885;49.754;18.636;2023-03-25T00:35:46;97256.42;;;16.76;100.00
56992;BME280;42885;49.754;18.636;2023-03-25T00:38:38;97263.53;;;16.75;100.00
56992;BME280;42885;49.754;18.636;2023-03-25T00:41:28;97258.91;;;16.77;100.00
56992;BME280;42885;49.754;18.636;2023-03-25T00:44:19;97264.76;;;16.59;100.00
56992;BME280;42885;49.754;18.636;2023-03-25T00:47:08;97266.38;;;16.56;100.00
56992;BME280;42885;49.754;18.636;2023-03-25T00:49:58;97266.83;;;16.73;100.00
56992;BME280;42885;49.754;18.636;2023-03-25T00:52:49;97271.55;;;16.65;100.00
56992;BME280;42885;49.754;18.636;2023-03-25T00:55:40;97260.28;;;16.55;100.00
56992;BME280;42885;49.754;18.636;2023-03-25T00:58:29;97253.26;;;16.72;100.00
56992;BME280;42885;49.754;18.636;2023-03-25T01:01:21;97253.48;;;16.48;100.00
56992;BME280;42885;49.754;18.636;2023-03-25T01:04:12;97254.81;;;16.53;100.00
56992;BME280;42885;49.754;18.636;2023-03-25T01:07:02;97261.62;;;16.33;100.00
56992;BME280;42885;49.754;18.636;2023-03-25T01:09:52;97256.06;;;16.40;100.00
56992;BME280;42885;49.754;18.636;2023-03-25T01:12:41;97259.38;;;16.42;100.00
56992;BME280;42885;49.754;18.636;2023-03-25T01:15:31;97262.88;;;16.51;100.00
56992;BME280;42885;49.754;18.636;2023-03-25T01:18:20;97261.55;;;16.73;100.00
56992;BME280;42885;49.754;18.636;2023-03-25T01:21:09;97271.47;;;16.79;100.00
56992;BME280;42885;49.754;18.636;2023-03-25T01:23:58;97263.68;;;16.74;100.00
56992;BME280;42885;49.754;18.636;2023-03-25T01:26:47;97262.54;;;16.76;100.00
56992;BME280;42885;49.754;18.636;2023-03-25T01:29:36;97262.59;;;16.54;100.00
56992;BME280;42885;49.754;18.636;2023-03-25T01:32:27;97260.11;;;16.30;100.00
56992;BME280;42885;49.754;18.636;2023-03-25T01:35:16;97261.69;;;16.41;100.00
56992;BME280;42885;49.754;18.636;2023-03-25T01:38:05;97249.80;;;16.41;100.00
56992;BME280;42885;49.754;18.636;2023-03-25T01:40:56;97246.55;;;16.51;100.00
56992;BME280;42885;49.754;18.636;2023-03-25T01:44:09;97240.98;;;16.59;100.00
56992;BME280;42885;49.754;18.636;2023-03-25T01:46:59;97234.10;;;16.40;100.00
56992;BME280;42885;49.754;18.636;2023-03-25T01:49:50;97237.88;;;16.37;100.00
56992;BME280;42885;49.754;18.636;2023-03-25T01:52:43;97235.25;;;15.92;100.00
56992;BME280;42885;49.754;18.636;2023-03-25T01:55:34;97236.03;;;16.07;100.00
56992;BME280;42885;49.754;18.636;2023-03-25T01:58:24;97240.77;;;15.85;100.00
56992;BME280;42885;49.754;18.636;2023-03-25T02:01:16;97251.27;;;15.81;100.00
56992;BME280;42885;49.754;18.636;2023-03-25T02:04:07;97253.92;;;15.63;100.00
56992;BME280;42885;49.754;18.636;2023-03-25T02:07:00;97257.37;;;15.63;100.00
56992;BME280;42885;49.754;18.636;2023-03-25T02:09:49;97254.63;;;15.51;100.00
56992;BME280;42885;49.754;18.636;2023-03-25T02:12:39;97256.03;;;15.59;100.00
56992;BME280;42885;49.754;18.636;2023-03-25T02:15:34;97248.34;;;15.66;100.00
56992;BME280;42885;49.754;18.636;2023-03-25T02:18:33;97259.11;;;15.73;100.00
56992;BME280;42885;49.754;18.636;2023-03-25T02:27:36;97274.17;;;15.62;100.00
56992;BME280;42885;49.754;18.636;2023-03-25T02:40:22;97271.53;;;15.30;100.00
56992;BME280;42885;49.754;18.636;2023-03-25T02:43:22;97273.53;;;15.46;100.00
56992;BME280;42885;49.754;18.636;2023-03-25T02:46:12;97282.06;;;15.58;100.00
56992;BME280;42885;49.754;18.636;2023-03-25T02:49:12;97286.14;;;15.10;100.00
56992;BME280;42885;49.754;18.636;2023-03-25T02:52:32;97292.43;;;14.76;100.00
56992;BME280;42885;49.754;18.636;2023-03-25T02:55:22;97290.36;;;14.69;100.00
56992;BME280;42885;49.754;18.636;2023-03-25T02:58:15;97282.59;;;14.34;100.00
56992;BME280;42885;49.754;18.636;2023-03-25T03:01:06;97277.91;;;14.28;100.00
56992;BME280;42885;49.754;18.636;2023-03-25T03:03:56;97282.67;;;14.38;100.00
56992;BME280;42885;49.754;18.636;2023-03-25T03:06:45;97291.80;;;14.44;100.00
56992;BME280;42885;49.754;18.636;2023-03-25T03:09:45;97293.66;;;14.48;100.00
56992;BME280;42885;49.754;18.636;2023-03-25T03:12:57;97295.14;;;14.36;100.00
56992;BME280;42885;49.754;18.636;2023-03-25T03:22:12;97291.19;;;14.60;100.00
56992;BME280;42885;49.754;18.636;2023-03-25T03:25:18;97297.08;;;14.68;100.00
56992;BME280;42885;49.754;18.636;2023-03-25T03:28:09;97287.52;;;14.67;100.00
56992;BME280;42885;49.754;18.636;2023-03-25T03:31:05;97285.56;;;14.69;100.00
56992;BME280;42885;49.754;18.636;2023-03-25T03:33:58;97292.43;;;14.76;100.00
56992;BME280;42885;49.754;18.636;2023-03-25T03:36:50;97284.94;;;14.81;100.00
56992;BME280;42885;49.754;18.636;2023-03-25T03:39:42;97280.45;;;14.91;100.00
56992;BME280;42885;49.754;18.636;2023-03-25T03:42:47;97288.89;;;14.81;100.00
56992;BME280;42885;49.754;18.636;2023-03-25T03:45:28;97293.61;;;14.77;100.00
56992;BME280;42885;49.754;18.636;2023-03-25T03:48:20;97301.44;;;14.73;100.00
56992;BME280;42885;49.754;18.636;2023-03-25T03:51:21;97299.47;;;14.85;100.00
56992;BME280;42885;49.754;18.636;2023-03-25T03:54:08;97300.73;;;14.71;100.00
56992;BME280;42885;49.754;18.636;2023-03-25T03:57:07;97290.70;;;14.70;100.00
56992;BME280;42885;49.754;18.636;2023-03-25T04:00:04;97305.41;;;14.63;100.00
56992;BME280;42885;49.754;18.636;2023-03-25T04:03:30;97314.33;;;14.86;100.00
56992;BME280;42885;49.754;18.636;2023-03-25T04:05:56;97315.09;;;14.82;100.00
56992;BME280;42885;49.754;18.636;2023-03-25T04:09:04;97319.67;;;14.70;100.00
56992;BME280;42885;49.754;18.636;2023-03-25T04:11:58;97324.66;;;14.64;100.00
56992;BME280;42885;49.754;18.636;2023-03-25T04:14:41;97325.24;;;14.57;100.00
56992;BME280;42885;49.754;18.636;2023-03-25T04:17:32;97326.91;;;14.49;100.00
56992;BME280;42885;49.754;18.636;2023-03-25T04:20:23;97326.39;;;14.59;100.00
56992;BME280;42885;49.754;18.636;2023-03-25T04:23:12;97311.88;;;14.45;100.00
56992;BME280;42885;49.754;18.636;2023-03-25T04:26:03;97313.45;;;14.52;100.00
56992;BME280;42885;49.754;18.636;2023-03-25T04:28:52;97316.03;;;14.48;100.00
56992;BME280;42885;49.754;18.636;2023-03-25T04:31:41;97315.70;;;14.37;100.00
56992;BME280;42885;49.754;18.636;2023-03-25T04:34:32;97325.06;;;14.15;100.00
56992;BME280;42885;49.754;18.636;2023-03-25T04:37:28;97324.94;;;14.17;100.00
56992;BME280;42885;49.754;18.636;2023-03-25T04:40:13;97331.35;;;14.18;100.00
56992;BME280;42885;49.754;18.636;2023-03-25T04:43:03;97338.23;;;14.25;100.00
56992;BME280;42885;49.754;18.636;2023-03-25T04:45:53;97346.33;;;14.18;100.00
56992;BME280;42885;49.754;18.636;2023-03-25T04:48:45;97346.52;;;14.01;100.00
56992;BME280;42885;49.754;18.636;2023-03-25T04:51:34;97350.80;;;14.31;99.35
56992;BME280;42885;49.754;18.636;2023-03-25T04:54:24;97347.44;;;14.25;98.27
56992;BME280;42885;49.754;18.636;2023-03-25T04:57:12;97345.14;;;14.16;99.11
56992;BME280;42885;49.754;18.636;2023-03-25T05:00:04;97344.86;;;14.00;100.00
56992;BME280;42885;49.754;18.636;2023-03-25T05:02:54;97352.20;;;14.06;100.00
56992;BME280;42885;49.754;18.636;2023-03-25T05:05:43;97358.52;;;13.99;100.00
56992;BME280;42885;49.754;18.636;2023-03-25T05:08:32;97369.28;;;13.96;100.00
56992;BME280;42885;49.754;18.636;2023-03-25T05:11:23;97374.44;;;14.08;100.00
56992;BME280;42885;49.754;18.636;2023-03-25T05:14:15;97371.39;;;14.12;97.47
56992;BME280;42885;49.754;18.636;2023-03-25T05:17:05;97374.01;;;14.22;97.87
56992;BME280;42885;49.754;18.636;2023-03-25T05:19:54;97361.76;;;14.37;96.79
56992;BME280;42885;49.754;18.636;2023-03-25T05:22:43;97357.40;;;14.95;90.53
56992;BME280;42885;49.754;18.636;2023-03-25T05:25:32;97359.13;;;15.00;89.08
56992;BME280;42885;49.754;18.636;2023-03-25T05:28:22;97374.70;;;14.73;89.79
56992;BME280;42885;49.754;18.636;2023-03-25T05:31:11;97376.50;;;14.73;90.19
56992;BME280;42885;49.754;18.636;2023-03-25T05:34:00;97375.73;;;14.57;91.70
56992;BME280;42885;49.754;18.636;2023-03-25T05:36:51;97384.19;;;14.51;92.59
56992;BME280;42885;49.754;18.636;2023-03-25T05:39:41;97381.42;;;14.13;94.93
56992;BME280;42885;49.754;18.636;2023-03-25T05:42:29;97374.84;;;14.13;94.34
56992;BME280;42885;49.754;18.636;2023-03-25T05:45:19;97379.89;;;14.40;91.98
56992;BME280;42885;49.754;18.636;2023-03-25T05:48:08;97382.05;;;14.40;91.61
56992;BME280;42885;49.754;18.636;2023-03-25T05:51:05;97384.61;;;14.56;90.97
56992;BME280;42885;49.754;18.636;2023-03-25T05:53:48;97389.27;;;14.38;91.85
56992;BME280;42885;49.754;18.636;2023-03-25T05:56:38;97390.43;;;14.50;90.52
56992;BME280;42885;49.754;18.636;2023-03-25T05:59:28;97392.09;;;14.51;90.23
56992;BME280;42885;49.754;18.636;2023-03-25T06:02:17;97400.27;;;14.48;90.76
56992;BME280;42885;49.754;18.636;2023-03-25T06:05:06;97397.72;;;14.42;90.59
56992;BME280;42885;49.754;18.636;2023-03-25T06:07:58;97400.41;;;14.46;91.94
56992;BME280;42885;49.754;18.636;2023-03-25T06:10:48;97400.56;;;14.44;91.91
56992;BME280;42885;49.754;18.636;2023-03-25T06:13:39;97401.59;;;14.57;89.30
56992;BME280;42885;49.754;18.636;2023-03-25T06:16:28;97410.46;;;14.47;90.23
56992;BME280;42885;49.754;18.636;2023-03-25T06:19:18;97410.26;;;14.54;89.96
56992;BME280;42885;49.754;18.636;2023-03-25T06:22:11;97411.69;;;14.42;90.09
56992;BME280;42885;49.754;18.636;2023-03-25T06:25:00;97416.00;;;14.63;90.15
56992;BME280;42885;49.754;18.636;2023-03-25T06:27:50;97415.23;;;14.86;86.80
56992;BME280;42885;49.754;18.636;2023-03-25T06:30:39;97417.65;;;14.94;87.05
56992;BME280;42885;49.754;18.636;2023-03-25T06:33:28;97419.77;;;15.04;86.04
56992;BME280;42885;49.754;18.636;2023-03-25T06:36:18;97413.48;;;15.25;84.38
56992;BME280;42885;49.754;18.636;2023-03-25T06:39:07;97416.36;;;15.08;85.29
56992;BME280;42885;49.754;18.636;2023-03-25T06:41:58;97418.13;;;15.27;83.46
56992;BME280;42885;49.754;18.636;2023-03-25T06:44:49;97401.14;;;15.39;84.01
56992;BME280;42885;49.754;18.636;2023-03-25T06:47:49;97400.56;;;15.60;82.22
56992;BME280;42885;49.754;18.636;2023-03-25T06:50:38;97395.25;;;15.69;81.42
56992;BME280;42885;49.754;18.636;2023-03-25T06:53:28;97391.20;;;15.09;84.40
56992;BME280;42885;49.754;18.636;2023-03-25T06:56:18;97392.67;;;15.22;83.77
56992;BME280;42885;49.754;18.636;2023-03-25T06:59:08;97392.42;;;15.53;83.03
56992;BME280;42885;49.754;18.636;2023-03-25T07:01:58;97382.02;;;15.79;83.22
56992;BME280;42885;49.754;18.636;2023-03-25T07:04:47;97381.74;;;16.15;78.80
56992;BME280;42885;49.754;18.636;2023-03-25T07:07:36;97388.22;;;16.20;79.07
56992;BME280;42885;49.754;18.636;2023-03-25T07:10:25;97384.73;;;16.34;77.82
56992;BME280;42885;49.754;18.636;2023-03-25T07:13:15;97381.75;;;16.33;76.83
56992;BME280;42885;49.754;18.636;2023-03-25T07:16:06;97384.03;;;16.72;73.25
56992;BME280;42885;49.754;18.636;2023-03-25T07:18:56;97385.47;;;16.26;73.51
56992;BME280;42885;49.754;18.636;2023-03-25T07:21:45;97385.08;;;16.39;73.57
56992;BME280;42885;49.754;18.636;2023-03-25T07:24:34;97377.82;;;16.59;73.84
56992;BME280;42885;49.754;18.636;2023-03-25T07:27:24;97380.13;;;16.81;70.40
56992;BME280;42885;49.754;18.636;2023-03-25T07:30:14;97376.86;;;16.06;73.22
56992;BME280;42885;49.754;18.636;2023-03-25T07:33:04;97377.77;;;15.68;75.50
56992;BME280;42885;49.754;18.636;2023-03-25T07:35:52;97377.75;;;15.82;79.92
56992;BME280;42885;49.754;18.636;2023-03-25T07:38:41;97389.77;;;16.45;74.05
56992;BME280;42885;49.754;18.636;2023-03-25T07:41:31;97394.20;;;16.63;70.46
56992;BME280;42885;49.754;18.636;2023-03-25T07:44:21;97384.38;;;16.15;73.90
56992;BME280;42885;49.754;18.636;2023-03-25T07:47:11;97382.19;;;16.10;76.27
56992;BME280;42885;49.754;18.636;2023-03-25T07:49:59;97384.69;;;15.98;75.58
56992;BME280;42885;49.754;18.636;2023-03-25T07:52:49;97383.43;;;16.02;75.86
56992;BME280;42885;49.754;18.636;2023-03-25T07:55:38;97386.30;;;16.08;76.77
56992;BME280;42885;49.754;18.636;2023-03-25T07:58:28;97389.77;;;15.67;78.08
56992;BME280;42885;49.754;18.636;2023-03-25T08:01:18;97383.62;;;15.90;77.92
56992;BME280;42885;49.754;18.636;2023-03-25T08:04:07;97390.01;;;16.34;73.83
56992;BME280;42885;49.754;18.636;2023-03-25T08:06:57;97379.50;;;16.06;74.70
56992;BME280;42885;49.754;18.636;2023-03-25T08:09:46;97383.66;;;16.08;75.68
56992;BME280;42885;49.754;18.636;2023-03-25T08:12:35;97369.67;;;15.94;75.12
56992;BME280;42885;49.754;18.636;2023-03-25T08:15:25;97374.86;;;15.90;74.87
56992;BME280;42885;49.754;18.636;2023-03-25T08:18:14;97376.94;;;16.14;75.50
56992;BME280;42885;49.754;18.636;2023-03-25T08:21:03;97369.36;;;16.51;71.24
56992;BME280;42885;49.754;18.636;2023-03-25T08:23:54;97369.67;;;16.48;71.80
56992;BME280;42885;49.754;18.636;2023-03-25T08:26:48;97358.06;;;16.63;69.78
56992;BME280;42885;49.754;18.636;2023-03-25T08:29:37;97359.27;;;16.51;68.66
56992;BME280;42885;49.754;18.636;2023-03-25T08:32:27;97366.19;;;16.70;68.18
56992;BME280;42885;49.754;18.636;2023-03-25T08:35:18;97365.65;;;16.62;68.92
56992;BME280;42885;49.754;18.636;2023-03-25T08:38:07;97362.00;;;16.86;67.72
56992;BME280;42885;49.754;18.636;2023-03-25T08:40:57;97359.34;;;16.82;66.43
56992;BME280;42885;49.754;18.636;2023-03-25T08:43:46;97348.63;;;17.10;65.22
56992;BME280;42885;49.754;18.636;2023-03-25T08:46:36;97352.78;;;17.12;63.88
56992;BME280;42885;49.754;18.636;2023-03-25T08:49:25;97342.84;;;16.84;65.23
56992;BME280;42885;49.754;18.636;2023-03-25T08:52:14;97352.18;;;16.74;63.74
56992;BME280;42885;49.754;18.636;2023-03-25T08:55:05;97356.87;;;16.58;64.82
56992;BME280;42885;49.754;18.636;2023-03-25T08:58:00;97357.47;;;17.00;64.05
56992;BME280;42885;49.754;18.636;2023-03-25T09:00:47;97361.30;;;16.79;63.05
56992;BME280;42885;49.754;18.636;2023-03-25T09:03:36;97362.21;;;16.66;64.18
56992;BME280;42885;49.754;18.636;2023-03-25T09:06:27;97350.56;;;16.77;62.61
56992;BME280;42885;49.754;18.636;2023-03-25T09:09:17;97350.56;;;16.77;62.61
56992;BME280;42885;49.754;18.636;2023-03-25T09:12:07;97361.96;;;16.55;63.70
56992;BME280;42885;49.754;18.636;2023-03-25T09:14:56;97362.76;;;17.00;63.32
56992;BME280;42885;49.754;18.636;2023-03-25T09:17:46;97356.79;;;17.20;61.34
56992;BME280;42885;49.754;18.636;2023-03-25T09:20:35;97358.17;;;17.84;60.66
56992;BME280;42885;49.754;18.636;2023-03-25T09:23:25;97346.23;;;17.68;60.23
56992;BME280;42885;49.754;18.636;2023-03-25T09:26:15;97346.68;;;17.55;60.44
56992;BME280;42885;49.754;18.636;2023-03-25T09:29:04;97344.06;;;17.63;57.99
56992;BME280;42885;49.754;18.636;2023-03-25T09:31:54;97334.95;;;17.57;57.59
56992;BME280;42885;49.754;18.636;2023-03-25T09:34:44;97342.27;;;17.80;58.10
56992;BME280;42885;49.754;18.636;2023-03-25T09:37:34;97345.36;;;17.59;56.87
56992;BME280;42885;49.754;18.636;2023-03-25T09:40:23;97346.84;;;17.14;57.59
56992;BME280;42885;49.754;18.636;2023-03-25T09:46:27;97333.81;;;17.64;57.62
56992;BME280;42885;49.754;18.636;2023-03-25T09:49:22;97331.30;;;18.39;57.97
56992;BME280;42885;49.754;18.636;2023-03-25T09:52:18;97331.67;;;17.72;57.97
56992;BME280;42885;49.754;18.636;2023-03-25T09:55:05;97323.50;;;18.12;57.98
56992;BME280;42885;49.754;18.636;2023-03-25T09:58:14;97319.81;;;17.93;57.47
56992;BME280;42885;49.754;18.636;2023-03-25T10:01:00;97317.55;;;18.43;55.56
56992;BME280;42885;49.754;18.636;2023-03-25T10:03:59;97311.11;;;18.21;54.03
56992;BME280;42885;49.754;18.636;2023-03-25T10:09:51;97295.86;;;18.61;52.82
56992;BME280;42885;49.754;18.636;2023-03-25T10:21:45;97288.02;;;17.80;53.30
56992;BME280;42885;49.754;18.636;2023-03-25T10:24:44;97289.70;;;17.81;54.20
56992;BME280;42885;49.754;18.636;2023-03-25T10:27:33;97280.44;;;17.85;53.88
56992;BME280;42885;49.754;18.636;2023-03-25T10:33:32;97278.92;;;17.62;53.88
56992;BME280;42885;49.754;18.636;2023-03-25T10:36:27;97272.87;;;17.27;54.83
56992;BME280;42885;49.754;18.636;2023-03-25T10:39:19;97280.80;;;16.96;56.40
56992;BME280;42885;49.754;18.636;2023-03-25T10:42:22;97286.88;;;16.88;56.73
56992;BME280;42885;49.754;18.636;2023-03-25T10:45:14;97298.49;;;16.69;58.17
56992;BME280;42885;49.754;18.636;2023-03-25T10:48:06;97297.73;;;16.81;59.55
56992;BME280;42885;49.754;18.636;2023-03-25T10:51:02;97289.25;;;17.39;55.69
56992;BME280;42885;49.754;18.636;2023-03-25T10:53:52;97295.51;;;16.95;55.94
56992;BME280;42885;49.754;18.636;2023-03-25T10:56:46;97301.36;;;16.54;57.84
56992;BME280;42885;49.754;18.636;2023-03-25T10:59:41;97309.27;;;16.49;60.08
56992;BME280;42885;49.754;18.636;2023-03-25T11:02:32;97334.16;;;16.06;62.45
56992;BME280;42885;49.754;18.636;2023-03-25T11:05:25;97385.59;;;13.55;92.84
56992;BME280;42885;49.754;18.636;2023-03-25T11:08:15;97405.77;;;12.44;100.00
56992;BME280;42885;49.754;18.636;2023-03-25T11:11:06;97404.81;;;12.12;100.00
56992;BME280;42885;49.754;18.636;2023-03-25T11:13:56;97418.02;;;11.99;100.00
56992;BME280;42885;49.754;18.636;2023-03-25T11:16:55;97402.07;;;12.08;100.00
56992;BME280;42885;49.754;18.636;2023-03-25T11:19:54;97389.20;;;11.93;100.00
56992;BME280;42885;49.754;18.636;2023-03-25T11:22:49;97384.44;;;12.04;100.00
56992;BME280;42885;49.754;18.636;2023-03-25T11:25:39;97370.46;;;12.42;100.00
56992;BME280;42885;49.754;18.636;2023-03-25T11:28:41;97350.59;;;12.92;100.00
56992;BME280;42885;49.754;18.636;2023-03-25T11:31:33;97343.41;;;13.25;100.00
56992;BME280;42885;49.754;18.636;2023-03-25T11:34:22;97336.05;;;13.75;100.00
56992;BME280;42885;49.754;18.636;2023-03-25T11:37:23;97330.33;;;15.40;100.00
56992;BME280;42885;49.754;18.636;2023-03-25T11:40:13;97312.47;;;17.14;86.96
56992;BME280;42885;49.754;18.636;2023-03-25T11:43:03;97310.37;;;19.02;73.78
56992;BME280;42885;49.754;18.636;2023-03-25T11:45:53;97303.52;;;19.79;69.13
56992;BME280;42885;49.754;18.636;2023-03-25T11:48:44;97306.25;;;17.92;75.83
56992;BME280;42885;49.754;18.636;2023-03-25T11:51:35;97309.82;;;16.88;78.80
56992;BME280;42885;49.754;18.636;2023-03-25T11:54:25;97304.61;;;17.27;72.85
56992;BME280;42885;49.754;18.636;2023-03-25T11:57:21;97289.73;;;17.98;72.50
56992;BME280;42885;49.754;18.636;2023-03-25T12:03:20;97287.50;;;16.56;75.51
56992;BME280;42885;49.754;18.636;2023-03-25T12:09:09;97271.17;;;18.64;67.49
56992;BME280;42885;49.754;18.636;2023-03-25T12:12:25;97278.09;;;19.30;61.10
56992;BME280;42885;49.754;18.636;2023-03-25T12:15:26;97271.38;;;17.28;71.26
56992;BME280;42885;49.754;18.636;2023-03-25T12:21:25;97263.95;;;16.93;67.10
56992;BME280;42885;49.754;18.636;2023-03-25T12:31:05;97270.85;;;16.59;79.73
56992;BME280;42885;49.754;18.636;2023-03-25T12:34:08;97267.09;;;15.81;74.77
56992;BME280;42885;49.754;18.636;2023-03-25T12:37:22;97259.59;;;16.04;74.45
56992;BME280;42885;49.754;18.636;2023-03-25T12:43:32;97270.13;;;15.86;72.51
56992;BME280;42885;49.754;18.636;2023-03-25T12:46:28;97276.88;;;15.66;68.33
56992;BME280;42885;49.754;18.636;2023-03-25T12:52:42;97264.51;;;15.85;59.09
56992;BME280;42885;49.754;18.636;2023-03-25T12:55:37;97250.56;;;16.60;57.57
56992;BME280;42885;49.754;18.636;2023-03-25T13:05:03;97262.16;;;16.67;54.30
56992;BME280;42885;49.754;18.636;2023-03-25T13:07:59;97261.80;;;16.62;53.40
56992;BME280;42885;49.754;18.636;2023-03-25T13:10:57;97259.39;;;16.20;53.74
56992;BME280;42885;49.754;18.636;2023-03-25T13:13:41;97259.45;;;16.28;55.60
56992;BME280;42885;49.754;18.636;2023-03-25T13:16:32;97254.52;;;16.33;54.92
56992;BME280;42885;49.754;18.636;2023-03-25T13:19:25;97258.52;;;16.37;54.27
56992;BME280;42885;49.754;18.636;2023-03-25T13:22:22;97254.28;;;17.02;53.39
56992;BME280;42885;49.754;18.636;2023-03-25T13:26:07;97253.52;;;16.30;52.92
56992;BME280;42885;49.754;18.636;2023-03-25T13:28:11;97258.80;;;16.08;53.83
56992;BME280;42885;49.754;18.636;2023-03-25T13:31:02;97253.54;;;16.12;51.51
56992;BME280;42885;49.754;18.636;2023-03-25T13:37:30;97255.66;;;16.53;50.67
56992;BME280;42885;49.754;18.636;2023-03-25T13:40:42;97252.88;;;16.63;48.96
56992;BME280;42885;49.754;18.636;2023-03-25T13:46:49;97252.74;;;16.16;50.47
56992;BME280;42885;49.754;18.636;2023-03-25T13:49:45;97254.19;;;16.10;50.24
56992;BME280;42885;49.754;18.636;2023-03-25T13:52:35;97250.96;;;15.98;50.71
56992;BME280;42885;49.754;18.636;2023-03-25T13:55:33;97246.20;;;16.02;52.05
56992;BME280;42885;49.754;18.636;2023-03-25T14:01:37;97243.66;;;15.60;52.79
56992;BME280;42885;49.754;18.636;2023-03-25T14:04:51;97243.00;;;15.76;53.54
56992;BME280;42885;49.754;18.636;2023-03-25T14:11:10;97254.84;;;15.25;58.24
56992;BME280;42885;49.754;18.636;2023-03-25T14:13:55;97263.50;;;15.04;61.18
56992;BME280;42885;49.754;18.636;2023-03-25T14:16:48;97257.69;;;15.14;62.65
56992;BME280;42885;49.754;18.636;2023-03-25T14:19:38;97258.47;;;14.96;63.72
56992;BME280;42885;49.754;18.636;2023-03-25T14:22:30;97267.79;;;14.91;65.13
56992;BME280;42885;49.754;18.636;2023-03-25T14:28:37;97264.66;;;15.05;66.38
56992;BME280;42885;49.754;18.636;2023-03-25T14:31:33;97261.55;;;14.92;66.33
56992;BME280;42885;49.754;18.636;2023-03-25T14:34:24;97258.03;;;15.01;66.05
56992;BME280;42885;49.754;18.636;2023-03-25T14:43:38;97259.00;;;15.60;63.03
56992;BME280;42885;49.754;18.636;2023-03-25T14:46:34;97256.81;;;16.28;61.22
56992;BME280;42885;49.754;18.636;2023-03-25T14:49:23;97261.52;;;15.98;60.50
56992;BME280;42885;49.754;18.636;2023-03-25T14:52:15;97258.75;;;16.04;60.20
56992;BME280;42885;49.754;18.636;2023-03-25T14:55:16;97260.66;;;15.61;62.13
56992;BME280;42885;49.754;18.636;2023-03-25T14:58:21;97262.05;;;15.69;62.03
56992;BME280;42885;49.754;18.636;2023-03-25T15:01:13;97265.44;;;15.80;62.16
56992;BME280;42885;49.754;18.636;2023-03-25T15:04:14;97266.13;;;15.64;61.71
56992;BME280;42885;49.754;18.636;2023-03-25T15:07:02;97272.94;;;15.71;62.99
56992;BME280;42885;49.754;18.636;2023-03-25T15:09:53;97271.87;;;15.95;61.92
56992;BME280;42885;49.754;18.636;2023-03-25T15:12:43;97266.48;;;15.83;61.05
56992;BME280;42885;49.754;18.636;2023-03-25T15:19:02;97273.44;;;15.38;64.04
56992;BME280;42885;49.754;18.636;2023-03-25T15:22:03;97269.78;;;15.49;64.54
56992;BME280;42885;49.754;18.636;2023-03-25T15:24:37;97266.07;;;15.13;65.29
56992;BME280;42885;49.754;18.636;2023-03-25T15:30:54;97282.67;;;16.02;60.02
56992;BME280;42885;49.754;18.636;2023-03-25T15:37:11;97259.45;;;15.09;65.96
56992;BME280;42885;49.754;18.636;2023-03-25T15:53:32;97257.23;;;14.67;66.78
56992;BME280;42885;49.754;18.636;2023-03-25T15:56:26;97257.23;;;14.67;66.78
56992;BME280;42885;49.754;18.636;2023-03-25T15:59:41;97252.59;;;14.75;65.59
56992;BME280;42885;49.754;18.636;2023-03-25T16:02:50;97254.77;;;14.55;67.83
56992;BME280;42885;49.754;18.636;2023-03-25T16:05:43;97257.92;;;14.69;68.04
56992;BME280;42885;49.754;18.636;2023-03-25T16:08:38;97253.22;;;14.63;64.50
56992;BME280;42885;49.754;18.636;2023-03-25T16:11:28;97248.81;;;14.53;63.82
56992;BME280;42885;49.754;18.636;2023-03-25T16:14:20;97241.78;;;14.78;60.83
56992;BME280;42885;49.754;18.636;2023-03-25T16:17:11;97241.78;;;14.78;60.83
56992;BME280;42885;49.754;18.636;2023-03-25T16:20:02;97239.60;;;14.53;59.74
56992;BME280;42885;49.754;18.636;2023-03-25T16:22:55;97238.91;;;14.61;59.25
56992;BME280;42885;49.754;18.636;2023-03-25T16:25:47;97236.75;;;14.84;59.98
56992;BME280;42885;49.754;18.636;2023-03-25T16:28:40;97242.50;;;14.84;57.06
56992;BME280;42885;49.754;18.636;2023-03-25T16:31:33;97243.33;;;14.61;55.42
56992;BME280;42885;49.754;18.636;2023-03-25T16:34:26;97237.97;;;14.76;54.83
56992;BME280;42885;49.754;18.636;2023-03-25T16:37:16;97240.28;;;14.55;56.13
56992;BME280;42885;49.754;18.636;2023-03-25T16:40:06;97244.34;;;14.40;57.46
56992;BME280;42885;49.754;18.636;2023-03-25T16:43:15;97242.50;;;14.36;56.11
56992;BME280;42885;49.754;18.636;2023-03-25T16:46:07;97251.44;;;14.29;55.94
56992;BME280;42885;49.754;18.636;2023-03-25T16:48:59;97245.53;;;14.31;55.81
56992;BME280;42885;49.754;18.636;2023-03-25T16:51:50;97251.94;;;14.19;55.61
56992;BME280;42885;49.754;18.636;2023-03-25T16:57:40;97250.97;;;14.20;54.58